sensor_id;sensor_type;location;lat;lon;timestamp;pressure;altitude;pressure_sealevel;temperature;humidity
7760;BME280;3924;48.830;9.262;2023-12-20T00:01:05;98645.38;;;4.96;85.98
7760;BME280;3924;48.830;9.262;2023-12-20T00:03:31;98650.75;;;4.96;86.08
7760;BME280;3924;48.830;9.262;2023-12-20T00:06:08;98648.13;;;5.01;85.35
7760;BME280;3924;48.830;9.262;2023-12-20T00:08:34;98640.91;;;5.07;85.83
7760;BME280;3924;48.830;9.262;2023-12-20T00:11:01;98636.44;;;5.17;85.75
7760;BME280;3924;48.830;9.262;2023-12-20T00:13:28;98642.69;;;5.23;85.72
7760;BME280;3924;48.830;9.262;2023-12-20T00:15:54;98634.34;;;5.25;85.53
7760;BME280;3924;48.830;9.262;2023-12-20T00:18:20;98632.78;;;5.29;86.09
7760;BME280;3924;48.830;9.262;2023-12-20T00:20:47;98624.75;;;5.34;86.06
7760;BME280;3924;48.830;9.262;2023-12-20T00:23:13;98625.88;;;5.38;85.51
7760;BME280;3924;48.830;9.262;2023-12-20T00:25:40;98619.97;;;5.41;85.78
7760;BME280;3924;48.830;9.262;2023-12-20T00:28:07;98626.47;;;5.45;85.52
7760;BME280;3924;48.830;9.262;2023-12-20T00:30:33;98615.72;;;5.45;85.93
7760;BME280;3924;48.830;9.262;2023-12-20T00:33:00;98619.47;;;5.44;85.65
7760;BME280;3924;48.830;9.262;2023-12-20T00:35:27;98618.94;;;5.47;86.04
7760;BME280;3924;48.830;9.262;2023-12-20T00:37:53;98632.13;;;5.48;85.92
7760;BME280;3924;48.830;9.262;2023-12-20T00:40:20;98606.06;;;5.49;85.41
7760;BME280;3924;48.830;9.262;2023-12-20T00:42:47;98610.88;;;5.47;85.61
7760;BME280;3924;48.830;9.262;2023-12-20T00:45:14;98604.19;;;5.49;85.97
7760;BME280;3924;48.830;9.262;2023-12-20T00:47:40;98613.56;;;5.47;86.19
7760;BME280;3924;48.830;9.262;2023-12-20T00:50:08;98603.84;;;5.41;86.06
7760;BME280;3924;48.830;9.262;2023-12-20T00:52:34;98605.44;;;5.37;86.03
7760;BME280;3924;48.830;9.262;2023-12-20T00:55:01;98609.44;;;5.34;86.43
7760;BME280;3924;48.830;9.262;2023-12-20T00:57:28;98612.13;;;5.34;86.38
7760;BME280;3924;48.830;9.262;2023-12-20T00:59:54;98602.44;;;5.33;86.50
7760;BME280;3924;48.830;9.262;2023-12-20T01:02:21;98608.13;;;5.37;86.55
7760;BME280;3924;48.830;9.262;2023-12-20T01:04:47;98613.50;;;5.37;86.27
7760;BME280;3924;48.830;9.262;2023-12-20T01:07:14;98609.44;;;5.34;86.46
7760;BME280;3924;48.830;9.262;2023-12-20T01:09:40;98609.97;;;5.31;86.80
7760;BME280;3924;48.830;9.262;2023-12-20T01:12:07;98618.53;;;5.28;86.68
7760;BME280;3924;48.830;9.262;2023-12-20T01:14:33;98611.78;;;5.26;86.46
7760;BME280;3924;48.830;9.262;2023-12-20T01:17:00;98611.50;;;5.22;86.55
7760;BME280;3924;48.830;9.262;2023-12-20T01:19:26;98618.19;;;5.19;86.94
7760;BME280;3924;48.830;9.262;2023-12-20T01:21:54;98625.69;;;5.17;87.11
7760;BME280;3924;48.830;9.262;2023-12-20T01:24:20;98627.84;;;5.15;86.68
7760;BME280;3924;48.830;9.262;2023-12-20T01:26:47;98631.84;;;5.13;87.06
7760;BME280;3924;48.830;9.262;2023-12-20T01:29:13;98624.28;;;5.10;87.05
7760;BME280;3924;48.830;9.262;2023-12-20T01:31:41;98622.38;;;5.05;86.97
7760;BME280;3924;48.830;9.262;2023-12-20T01:34:07;98623.94;;;5.01;87.24
7760;BME280;3924;48.830;9.262;2023-12-20T01:36:34;98629.56;;;5.00;86.97
7760;BME280;3924;48.830;9.262;2023-12-20T01:39:01;98635.75;;;5.00;87.18
7760;BME280;3924;48.830;9.262;2023-12-20T01:41:29;98634.94;;;5.00;87.29
7760;BME280;3924;48.830;9.262;2023-12-20T01:43:56;98638.44;;;5.00;87.33
7760;BME280;3924;48.830;9.262;2023-12-20T01:46:23;98627.13;;;4.98;87.52
7760;BME280;3924;48.830;9.262;2023-12-20T01:48:49;98630.88;;;4.97;87.80
7760;BME280;3924;48.830;9.262;2023-12-20T01:51:16;98631.97;;;4.96;87.89
7760;BME280;3924;48.830;9.262;2023-12-20T01:53:43;98634.63;;;4.96;87.74
7760;BME280;3924;48.830;9.262;2023-12-20T01:56:10;98638.13;;;4.97;87.77
7760;BME280;3924;48.830;9.262;2023-12-20T01:58:44;98628.47;;;4.96;87.89
7760;BME280;3924;48.830;9.262;2023-12-20T02:01:11;98622.78;;;4.92;87.79
7760;BME280;3924;48.830;9.262;2023-12-20T02:03:40;98634.03;;;4.89;87.95
7760;BME280;3924;48.830;9.262;2023-12-20T02:06:08;98629.16;;;4.86;88.11
7760;BME280;3924;48.830;9.262;2023-12-20T02:08:36;98623.22;;;4.84;88.06
7760;BME280;3924;48.830;9.262;2023-12-20T02:11:02;98620.50;;;4.79;88.39
7760;BME280;3924;48.830;9.262;2023-12-20T02:13:30;98625.31;;;4.77;88.49
7760;BME280;3924;48.830;9.262;2023-12-20T02:15:57;98620.19;;;4.75;88.30
7760;BME280;3924;48.830;9.262;2023-12-20T02:18:23;98621.50;;;4.73;88.63
7760;BME280;3924;48.830;9.262;2023-12-20T02:20:50;98620.94;;;4.71;88.26
7760;BME280;3924;48.830;9.262;2023-12-20T02:23:17;98625.50;;;4.70;88.64
7760;BME280;3924;48.830;9.262;2023-12-20T02:25:44;98622.81;;;4.70;88.28
7760;BME280;3924;48.830;9.262;2023-12-20T02:28:10;98624.19;;;4.73;88.49
7760;BME280;3924;48.830;9.262;2023-12-20T02:30:37;98632.81;;;4.75;88.90
7760;BME280;3924;48.830;9.262;2023-12-20T02:33:07;98628.53;;;4.74;88.86
7760;BME280;3924;48.830;9.262;2023-12-20T02:35:35;98628.53;;;4.74;88.73
7760;BME280;3924;48.830;9.262;2023-12-20T02:38:01;98618.00;;;4.72;88.84
7760;BME280;3924;48.830;9.262;2023-12-20T02:40:27;98629.56;;;4.73;89.02
7760;BME280;3924;48.830;9.262;2023-12-20T02:42:54;98626.31;;;4.71;88.75
7760;BME280;3924;48.830;9.262;2023-12-20T02:45:20;98630.88;;;4.70;88.90
7760;BME280;3924;48.830;9.262;2023-12-20T02:47:47;98625.50;;;4.70;89.27
7760;BME280;3924;48.830;9.262;2023-12-20T02:50:14;98626.31;;;4.71;88.92
7760;BME280;3924;48.830;9.262;2023-12-20T02:52:44;98625.78;;;4.69;89.09
7760;BME280;3924;48.830;9.262;2023-12-20T02:55:10;98617.19;;;4.72;88.98
7760;BME280;3924;48.830;9.262;2023-12-20T02:57:37;98625.84;;;4.74;89.49
7760;BME280;3924;48.830;9.262;2023-12-20T03:00:09;98623.69;;;4.76;89.33
7760;BME280;3924;48.830;9.262;2023-12-20T03:02:36;98629.06;;;4.76;89.40
7760;BME280;3924;48.830;9.262;2023-12-20T03:05:03;98625.31;;;4.77;89.51
7760;BME280;3924;48.830;9.262;2023-12-20T03:07:29;98633.44;;;4.82;89.49
7760;BME280;3924;48.830;9.262;2023-12-20T03:09:56;98631.59;;;4.87;89.29
7760;BME280;3924;48.830;9.262;2023-12-20T03:12:41;98630.56;;;4.93;89.62
7760;BME280;3924;48.830;9.262;2023-12-20T03:15:08;98628.75;;;4.99;89.95
7760;BME280;3924;48.830;9.262;2023-12-20T03:17:35;98637.94;;;5.03;89.76
7760;BME280;3924;48.830;9.262;2023-12-20T03:20:01;98649.22;;;5.05;89.46
7760;BME280;3924;48.830;9.262;2023-12-20T03:22:28;98647.63;;;5.04;89.52
7760;BME280;3924;48.830;9.262;2023-12-20T03:24:54;98651.66;;;5.07;90.00
7760;BME280;3924;48.830;9.262;2023-12-20T03:27:21;98645.78;;;5.10;90.28
7760;BME280;3924;48.830;9.262;2023-12-20T03:29:47;98653.59;;;5.11;89.92
7760;BME280;3924;48.830;9.262;2023-12-20T03:32:14;98655.47;;;5.11;89.82
7760;BME280;3924;48.830;9.262;2023-12-20T03:34:40;98641.47;;;5.09;89.71
7760;BME280;3924;48.830;9.262;2023-12-20T03:37:07;98647.41;;;5.11;90.03
7760;BME280;3924;48.830;9.262;2023-12-20T03:39:34;98649.28;;;5.10;90.29
7760;BME280;3924;48.830;9.262;2023-12-20T03:42:00;98647.94;;;5.13;90.03
7760;BME280;3924;48.830;9.262;2023-12-20T03:44:27;98655.19;;;5.12;89.95
7760;BME280;3924;48.830;9.262;2023-12-20T03:46:53;98656.81;;;5.13;90.39
7760;BME280;3924;48.830;9.262;2023-12-20T03:49:20;98656.00;;;5.13;90.00
7760;BME280;3924;48.830;9.262;2023-12-20T03:51:46;98649.03;;;5.12;90.13
7760;BME280;3924;48.830;9.262;2023-12-20T03:54:13;98656.00;;;5.13;90.35
7760;BME280;3924;48.830;9.262;2023-12-20T03:56:39;98658.97;;;5.11;90.11
7760;BME280;3924;48.830;9.262;2023-12-20T03:59:06;98657.34;;;5.10;90.44
7760;BME280;3924;48.830;9.262;2023-12-20T04:01:32;98655.19;;;5.12;90.47
7760;BME280;3924;48.830;9.262;2023-12-20T04:03:59;98654.91;;;5.09;90.54
7760;BME280;3924;48.830;9.262;2023-12-20T04:06:25;98650.34;;;5.09;90.40
7760;BME280;3924;48.830;9.262;2023-12-20T04:08:52;98655.41;;;5.06;90.39
7760;BME280;3924;48.830;9.262;2023-12-20T04:11:19;98671.78;;;5.04;90.74
7760;BME280;3924;48.830;9.262;2023-12-20T04:13:45;98662.91;;;5.04;90.54
7760;BME280;3924;48.830;9.262;2023-12-20T04:16:11;98661.03;;;5.04;90.42
7760;BME280;3924;48.830;9.262;2023-12-20T04:18:38;98650.81;;;5.01;90.46
7760;BME280;3924;48.830;9.262;2023-12-20T04:21:04;98658.88;;;5.01;90.77
7760;BME280;3924;48.830;9.262;2023-12-20T04:23:31;98667.97;;;5.00;90.82
7760;BME280;3924;48.830;9.262;2023-12-20T04:25:58;98668.50;;;4.97;90.58
7760;BME280;3924;48.830;9.262;2023-12-20T04:28:24;98677.63;;;4.96;90.81
7760;BME280;3924;48.830;9.262;2023-12-20T04:30:51;98672.75;;;4.93;91.13
7760;BME280;3924;48.830;9.262;2023-12-20T04:33:18;98677.88;;;4.94;90.87
7760;BME280;3924;48.830;9.262;2023-12-20T04:35:44;98682.19;;;4.96;90.96
7760;BME280;3924;48.830;9.262;2023-12-20T04:38:12;98680.56;;;4.94;90.89
7760;BME280;3924;48.830;9.262;2023-12-20T04:40:38;98679.72;;;4.94;90.98
7760;BME280;3924;48.830;9.262;2023-12-20T04:43:07;98685.63;;;4.91;90.87
7760;BME280;3924;48.830;9.262;2023-12-20T04:45:35;98692.59;;;4.92;90.83
7760;BME280;3924;48.830;9.262;2023-12-20T04:48:02;98709.53;;;4.92;91.13
7760;BME280;3924;48.830;9.262;2023-12-20T04:50:29;98711.97;;;4.94;91.15
7760;BME280;3924;48.830;9.262;2023-12-20T04:52:55;98710.66;;;4.97;91.09
7760;BME280;3924;48.830;9.262;2023-12-20T04:55:22;98706.59;;;4.94;91.14
7760;BME280;3924;48.830;9.262;2023-12-20T04:57:48;98688.03;;;4.92;91.28
7760;BME280;3924;48.830;9.262;2023-12-20T05:00:15;98708.72;;;4.92;91.20
7760;BME280;3924;48.830;9.262;2023-12-20T05:02:42;98703.34;;;4.92;91.13
7760;BME280;3924;48.830;9.262;2023-12-20T05:05:09;98704.16;;;4.92;91.51
7760;BME280;3924;48.830;9.262;2023-12-20T05:07:35;98710.34;;;4.93;91.16
7760;BME280;3924;48.830;9.262;2023-12-20T05:10:03;98702.53;;;4.91;91.00
7760;BME280;3924;48.830;9.262;2023-12-20T05:12:31;98706.59;;;4.94;90.99
7760;BME280;3924;48.830;9.262;2023-12-20T05:14:58;98715.72;;;4.93;90.93
7760;BME280;3924;48.830;9.262;2023-12-20T05:17:24;98717.34;;;4.94;91.08
7760;BME280;3924;48.830;9.262;2023-12-20T05:19:51;98717.03;;;4.90;91.01
7760;BME280;3924;48.830;9.262;2023-12-20T05:22:19;98712.22;;;4.92;91.23
7760;BME280;3924;48.830;9.262;2023-12-20T05:24:45;98721.09;;;4.93;91.19
7760;BME280;3924;48.830;9.262;2023-12-20T05:27:12;98730.22;;;4.92;91.46
7760;BME280;3924;48.830;9.262;2023-12-20T05:29:39;98725.09;;;4.90;91.27
7760;BME280;3924;48.830;9.262;2023-12-20T05:32:05;98728.59;;;4.91;91.65
7760;BME280;3924;48.830;9.262;2023-12-20T05:34:32;98734.28;;;4.94;91.42
7760;BME280;3924;48.830;9.262;2023-12-20T05:36:59;98735.91;;;4.96;91.05
7760;BME280;3924;48.830;9.262;2023-12-20T05:39:25;98732.41;;;4.95;91.06
7760;BME280;3924;48.830;9.262;2023-12-20T05:41:52;98733.44;;;4.94;91.20
7760;BME280;3924;48.830;9.262;2023-12-20T05:44:18;98744.19;;;4.94;91.50
7760;BME280;3924;48.830;9.262;2023-12-20T05:46:45;98741.28;;;4.96;91.61
7760;BME280;3924;48.830;9.262;2023-12-20T05:49:11;98751.50;;;4.99;90.96
7760;BME280;3924;48.830;9.262;2023-12-20T05:51:38;98755.25;;;4.98;91.63
7760;BME280;3924;48.830;9.262;2023-12-20T05:54:05;98758.22;;;4.96;91.34
7760;BME280;3924;48.830;9.262;2023-12-20T05:56:31;98761.97;;;4.95;91.72
7760;BME280;3924;48.830;9.262;2023-12-20T05:58:58;98756.59;;;4.95;91.71
7760;BME280;3924;48.830;9.262;2023-12-20T06:01:25;98756.81;;;4.93;91.70
7760;BME280;3924;48.830;9.262;2023-12-20T06:03:51;98765.13;;;4.92;91.63
7760;BME280;3924;48.830;9.262;2023-12-20T06:06:18;98761.63;;;4.91;91.71
7760;BME280;3924;48.830;9.262;2023-12-20T06:08:45;98787.19;;;4.94;91.52
7760;BME280;3924;48.830;9.262;2023-12-20T06:11:11;98782.88;;;4.93;91.74
7760;BME280;3924;48.830;9.262;2023-12-20T06:13:38;98783.94;;;4.92;91.77
7760;BME280;3924;48.830;9.262;2023-12-20T06:16:05;98785.56;;;4.93;91.76
7760;BME280;3924;48.830;9.262;2023-12-20T06:18:33;98783.94;;;4.92;91.73
7760;BME280;3924;48.830;9.262;2023-12-20T06:21:00;98788.81;;;4.95;91.52
7760;BME280;3924;48.830;9.262;2023-12-20T06:23:26;98791.25;;;4.97;91.76
7760;BME280;3924;48.830;9.262;2023-12-20T06:25:54;98776.44;;;4.94;91.74
7760;BME280;3924;48.830;9.262;2023-12-20T06:28:20;98776.44;;;4.94;92.01
7760;BME280;3924;48.830;9.262;2023-12-20T06:30:47;98779.13;;;4.94;91.87
7760;BME280;3924;48.830;9.262;2023-12-20T06:33:16;98776.22;;;4.96;91.92
7760;BME280;3924;48.830;9.262;2023-12-20T06:35:42;98783.47;;;4.95;91.86
7760;BME280;3924;48.830;9.262;2023-12-20T06:38:09;98790.72;;;4.94;91.73
7760;BME280;3924;48.830;9.262;2023-12-20T06:40:35;98803.28;;;4.94;91.59
7760;BME280;3924;48.830;9.262;2023-12-20T06:43:02;98796.88;;;4.95;92.04
7760;BME280;3924;48.830;9.262;2023-12-20T06:45:41;98798.50;;;4.96;91.88
7760;BME280;3924;48.830;9.262;2023-12-20T06:48:08;98800.38;;;4.96;91.97
7760;BME280;3924;48.830;9.262;2023-12-20T06:50:37;98803.28;;;4.94;91.81
7760;BME280;3924;48.830;9.262;2023-12-20T06:53:06;98806.25;;;4.92;92.21
7760;BME280;3924;48.830;9.262;2023-12-20T06:55:35;98811.13;;;4.96;92.07
7760;BME280;3924;48.830;9.262;2023-12-20T06:58:02;98813.56;;;4.97;91.73
7760;BME280;3924;48.830;9.262;2023-12-20T07:00:29;98821.38;;;4.99;91.97
7760;BME280;3924;48.830;9.262;2023-12-20T07:02:56;98821.09;;;5.00;91.89
7760;BME280;3924;48.830;9.262;2023-12-20T07:05:22;98819.00;;;5.02;92.20
7760;BME280;3924;48.830;9.262;2023-12-20T07:07:49;98824.94;;;5.04;92.20
7760;BME280;3924;48.830;9.262;2023-12-20T07:10:16;98826.06;;;5.08;92.25
7760;BME280;3924;48.830;9.262;2023-12-20T07:12:43;98832.56;;;5.12;92.25
7760;BME280;3924;48.830;9.262;2023-12-20T07:15:10;98839.63;;;5.18;92.31
7760;BME280;3924;48.830;9.262;2023-12-20T07:17:37;98841.81;;;5.21;92.19
7760;BME280;3924;48.830;9.262;2023-12-20T07:20:04;98857.44;;;5.25;92.11
7760;BME280;3924;48.830;9.262;2023-12-20T07:22:33;98846.69;;;5.25;92.39
7760;BME280;3924;48.830;9.262;2023-12-20T07:25:00;98846.97;;;5.28;92.12
7760;BME280;3924;48.830;9.262;2023-12-20T07:27:27;98856.91;;;5.28;92.09
7760;BME280;3924;48.830;9.262;2023-12-20T07:29:54;98859.13;;;5.31;92.43
7760;BME280;3924;48.830;9.262;2023-12-20T07:32:20;98858.31;;;5.30;92.30
7760;BME280;3924;48.830;9.262;2023-12-20T07:34:47;98870.94;;;5.30;92.46
7760;BME280;3924;48.830;9.262;2023-12-20T07:37:14;98875.72;;;5.28;92.11
7760;BME280;3924;48.830;9.262;2023-12-20T07:39:41;98880.06;;;5.29;92.29
7760;BME280;3924;48.830;9.262;2023-12-20T07:42:08;98884.13;;;5.31;92.18
7760;BME280;3924;48.830;9.262;2023-12-20T07:44:35;98873.09;;;5.33;92.06
7760;BME280;3924;48.830;9.262;2023-12-20T07:47:05;98857.50;;;5.30;92.06
7760;BME280;3924;48.830;9.262;2023-12-20T07:49:31;98872.56;;;5.31;92.59
7760;BME280;3924;48.830;9.262;2023-12-20T07:51:58;98870.41;;;5.33;92.46
7760;BME280;3924;48.830;9.262;2023-12-20T07:54:25;98869.63;;;5.32;92.35
7760;BME280;3924;48.830;9.262;2023-12-20T07:56:52;98872.56;;;5.31;92.34
7760;BME280;3924;48.830;9.262;2023-12-20T07:59:18;98870.34;;;5.28;92.53
7760;BME280;3924;48.830;9.262;2023-12-20T08:01:58;98884.31;;;5.25;92.39
7760;BME280;3924;48.830;9.262;2023-12-20T08:04:25;98875.09;;;5.20;92.56
7760;BME280;3924;48.830;9.262;2023-12-20T08:06:51;98875.88;;;5.16;92.86
7760;BME280;3924;48.830;9.262;2023-12-20T08:09:18;98877.34;;;5.07;92.57
7760;BME280;3924;48.830;9.262;2023-12-20T08:11:49;98891.53;;;5.02;92.84
7760;BME280;3924;48.830;9.262;2023-12-20T08:14:15;98894.72;;;4.99;92.77
7760;BME280;3924;48.830;9.262;2023-12-20T08:16:42;98902.22;;;4.97;92.89
7760;BME280;3924;48.830;9.262;2023-12-20T08:19:09;98900.00;;;4.94;92.88
7760;BME280;3924;48.830;9.262;2023-12-20T08:21:35;98908.31;;;4.92;92.87
7760;BME280;3924;48.830;9.262;2023-12-20T08:24:04;98909.63;;;4.90;92.77
7760;BME280;3924;48.830;9.262;2023-12-20T08:26:32;98910.69;;;4.89;92.70
7760;BME280;3924;48.830;9.262;2023-12-20T08:28:58;98902.31;;;4.85;92.83
7760;BME280;3924;48.830;9.262;2023-12-20T08:31:27;98911.94;;;4.81;92.82
7760;BME280;3924;48.830;9.262;2023-12-20T08:33:54;98906.22;;;4.78;93.03
7760;BME280;3924;48.830;9.262;2023-12-20T08:36:21;98922.84;;;4.75;93.09
7760;BME280;3924;48.830;9.262;2023-12-20T08:38:49;98929.28;;;4.74;92.76
7760;BME280;3924;48.830;9.262;2023-12-20T08:41:17;98927.16;;;4.76;93.14
7760;BME280;3924;48.830;9.262;2023-12-20T08:43:43;98916.88;;;4.73;93.03
7760;BME280;3924;48.830;9.262;2023-12-20T08:46:10;98927.06;;;4.71;93.42
7760;BME280;3924;48.830;9.262;2023-12-20T08:48:37;98924.94;;;4.73;93.04
7760;BME280;3924;48.830;9.262;2023-12-20T08:51:04;98930.56;;;4.71;92.71
7760;BME280;3924;48.830;9.262;2023-12-20T08:53:33;98935.13;;;4.71;92.94
7760;BME280;3924;48.830;9.262;2023-12-20T08:56:00;98928.53;;;4.78;93.00
7760;BME280;3924;48.830;9.262;2023-12-20T08:58:28;98940.16;;;4.84;93.20
7760;BME280;3924;48.830;9.262;2023-12-20T09:00:55;98918.25;;;4.92;92.77
7760;BME280;3924;48.830;9.262;2023-12-20T09:03:21;98923.16;;;4.95;92.90
7760;BME280;3924;48.830;9.262;2023-12-20T09:05:48;98928.56;;;5.00;92.68
7760;BME280;3924;48.830;9.262;2023-12-20T09:08:14;98926.22;;;5.04;92.79
7760;BME280;3924;48.830;9.262;2023-12-20T09:10:41;98924.91;;;5.06;92.76
7760;BME280;3924;48.830;9.262;2023-12-20T09:13:07;98917.41;;;5.08;92.46
7760;BME280;3924;48.830;9.262;2023-12-20T09:15:34;98916.34;;;5.09;92.70
7760;BME280;3924;48.830;9.262;2023-12-20T09:18:02;98911.53;;;5.11;92.51
7760;BME280;3924;48.830;9.262;2023-12-20T09:20:30;98914.78;;;5.13;92.48
7760;BME280;3924;48.830;9.262;2023-12-20T09:22:57;98915.13;;;5.17;92.41
7760;BME280;3924;48.830;9.262;2023-12-20T09:25:24;98920.56;;;5.22;92.25
7760;BME280;3924;48.830;9.262;2023-12-20T09:27:53;98923.56;;;5.26;92.54
7760;BME280;3924;48.830;9.262;2023-12-20T09:30:19;98930.06;;;5.30;92.35
7760;BME280;3924;48.830;9.262;2023-12-20T09:32:54;98935.19;;;5.31;92.42
7760;BME280;3924;48.830;9.262;2023-12-20T09:35:20;98927.19;;;5.36;92.19
7760;BME280;3924;48.830;9.262;2023-12-20T09:37:47;98938.00;;;5.41;91.94
7760;BME280;3924;48.830;9.262;2023-12-20T09:40:17;98936.19;;;5.47;92.05
7760;BME280;3924;48.830;9.262;2023-12-20T09:42:57;98937.88;;;5.53;91.95
7760;BME280;3924;48.830;9.262;2023-12-20T09:45:24;98935.25;;;5.58;91.96
7760;BME280;3924;48.830;9.262;2023-12-20T09:47:52;98933.19;;;5.65;92.01
7760;BME280;3924;48.830;9.262;2023-12-20T09:50:22;98932.75;;;5.73;91.81
7760;BME280;3924;48.830;9.262;2023-12-20T09:52:51;98942.00;;;5.83;91.88
7760;BME280;3924;48.830;9.262;2023-12-20T09:55:19;98937.22;;;5.90;91.69
7760;BME280;3924;48.830;9.262;2023-12-20T09:57:47;98937.06;;;5.96;91.16
7760;BME280;3924;48.830;9.262;2023-12-20T10:00:15;98930.44;;;6.04;91.11
7760;BME280;3924;48.830;9.262;2023-12-20T10:02:59;98938.88;;;6.13;91.12
7760;BME280;3924;48.830;9.262;2023-12-20T10:05:32;98935.16;;;6.19;91.35
7760;BME280;3924;48.830;9.262;2023-12-20T10:08:00;98937.66;;;6.25;90.82
7760;BME280;3924;48.830;9.262;2023-12-20T10:10:28;98949.03;;;6.33;91.04
7760;BME280;3924;48.830;9.262;2023-12-20T10:13:11;98944.25;;;6.40;90.82
7760;BME280;3924;48.830;9.262;2023-12-20T10:15:38;98947.53;;;6.47;90.57
7760;BME280;3924;48.830;9.262;2023-12-20T10:18:05;98936.28;;;6.55;90.19
7760;BME280;3924;48.830;9.262;2023-12-20T10:20:33;98931.75;;;6.61;89.80
7760;BME280;3924;48.830;9.262;2023-12-20T10:23:01;98929.13;;;6.71;90.34
7760;BME280;3924;48.830;9.262;2023-12-20T10:25:28;98932.19;;;6.79;89.96
7760;BME280;3924;48.830;9.262;2023-12-20T10:28:15;98926.81;;;6.84;89.47
7760;BME280;3924;48.830;9.262;2023-12-20T10:30:45;98926.25;;;6.82;89.45
7760;BME280;3924;48.830;9.262;2023-12-20T10:33:12;98913.66;;;6.56;89.86
7760;BME280;3924;48.830;9.262;2023-12-20T10:35:40;98910.31;;;6.44;90.12
7760;BME280;3924;48.830;9.262;2023-12-20T10:38:12;98910.31;;;6.44;90.28
7760;BME280;3924;48.830;9.262;2023-12-20T10:40:40;98920.19;;;6.65;89.82
7760;BME280;3924;48.830;9.262;2023-12-20T10:43:08;98922.88;;;6.60;89.01
7760;BME280;3924;48.830;9.262;2023-12-20T10:45:35;98913.44;;;6.30;89.04
7760;BME280;3924;48.830;9.262;2023-12-20T10:48:02;98928.31;;;6.06;89.99
7760;BME280;3924;48.830;9.262;2023-12-20T10:50:30;98920.53;;;5.88;89.80
7760;BME280;3924;48.830;9.262;2023-12-20T10:52:58;98919.38;;;5.79;89.72
7760;BME280;3924;48.830;9.262;2023-12-20T10:55:25;98922.31;;;5.77;90.67
7760;BME280;3924;48.830;9.262;2023-12-20T10:58:00;98916.69;;;5.79;89.71
7760;BME280;3924;48.830;9.262;2023-12-20T11:00:29;98916.31;;;5.92;90.01
7760;BME280;3924;48.830;9.262;2023-12-20T11:03:00;98919.34;;;6.27;89.49
7760;BME280;3924;48.830;9.262;2023-12-20T11:05:38;98909.84;;;6.47;88.34
7760;BME280;3924;48.830;9.262;2023-12-20T11:08:26;98910.09;;;6.45;88.46
7760;BME280;3924;48.830;9.262;2023-12-20T11:11:01;98916.28;;;6.46;88.71
7760;BME280;3924;48.830;9.262;2023-12-20T11:13:32;98912.53;;;6.47;88.33
7760;BME280;3924;48.830;9.262;2023-12-20T11:16:01;98897.88;;;6.33;88.45
7760;BME280;3924;48.830;9.262;2023-12-20T11:18:30;98911.75;;;6.24;88.47
7760;BME280;3924;48.830;9.262;2023-12-20T11:21:06;98906.84;;;6.16;88.52
7760;BME280;3924;48.830;9.262;2023-12-20T11:23:33;98907.88;;;6.10;88.51
7760;BME280;3924;48.830;9.262;2023-12-20T11:26:02;98903.00;;;6.07;88.55
7760;BME280;3924;48.830;9.262;2023-12-20T11:28:29;98900.84;;;6.04;88.62
7760;BME280;3924;48.830;9.262;2023-12-20T11:31:01;98909.13;;;6.02;88.04
7760;BME280;3924;48.830;9.262;2023-12-20T11:33:36;98907.25;;;6.03;88.29
7760;BME280;3924;48.830;9.262;2023-12-20T11:36:06;98899.78;;;6.05;87.93
7760;BME280;3924;48.830;9.262;2023-12-20T11:38:38;98898.97;;;6.10;87.68
7760;BME280;3924;48.830;9.262;2023-12-20T11:41:06;98899.31;;;6.13;87.65
7760;BME280;3924;48.830;9.262;2023-12-20T11:43:37;98904.69;;;6.13;87.91
7760;BME280;3924;48.830;9.262;2023-12-20T11:46:09;98904.38;;;6.10;87.44
7760;BME280;3924;48.830;9.262;2023-12-20T11:48:38;98906.78;;;6.06;87.81
7760;BME280;3924;48.830;9.262;2023-12-20T11:51:12;98908.91;;;6.04;87.67
7760;BME280;3924;48.830;9.262;2023-12-20T11:53:40;98903.53;;;6.04;87.93
7760;BME280;3924;48.830;9.262;2023-12-20T11:56:08;98906.16;;;5.99;87.40
7760;BME280;3924;48.830;9.262;2023-12-20T11:58:36;98896.97;;;5.95;87.08
7760;BME280;3924;48.830;9.262;2023-12-20T12:01:03;98898.56;;;5.91;87.37
7760;BME280;3924;48.830;9.262;2023-12-20T12:03:30;98889.88;;;5.89;87.08
7760;BME280;3924;48.830;9.262;2023-12-20T12:05:57;98892.56;;;5.89;87.27
7760;BME280;3924;48.830;9.262;2023-12-20T12:08:24;98879.91;;;5.89;86.54
7760;BME280;3924;48.830;9.262;2023-12-20T12:10:51;98880.25;;;5.93;87.15
7760;BME280;3924;48.830;9.262;2023-12-20T12:13:18;98885.13;;;5.96;86.81
7760;BME280;3924;48.830;9.262;2023-12-20T12:15:44;98883.56;;;6.00;86.66
7760;BME280;3924;48.830;9.262;2023-12-20T12:18:15;98865.28;;;6.02;86.24
7760;BME280;3924;48.830;9.262;2023-12-20T12:20:42;98867.47;;;6.05;86.33
7760;BME280;3924;48.830;9.262;2023-12-20T12:23:09;98856.19;;;6.08;86.36
7760;BME280;3924;48.830;9.262;2023-12-20T12:25:36;98853.53;;;6.13;86.16
7760;BME280;3924;48.830;9.262;2023-12-20T12:28:09;98854.09;;;6.15;86.03
7760;BME280;3924;48.830;9.262;2023-12-20T12:30:35;98865.41;;;6.17;85.94
7760;BME280;3924;48.830;9.262;2023-12-20T12:33:11;98864.31;;;6.13;85.64
7760;BME280;3924;48.830;9.262;2023-12-20T12:35:38;98851.41;;;6.15;85.61
7760;BME280;3924;48.830;9.262;2023-12-20T12:38:07;98853.63;;;6.23;85.73
7760;BME280;3924;48.830;9.262;2023-12-20T12:40:34;98852.38;;;6.36;85.59
7760;BME280;3924;48.830;9.262;2023-12-20T12:43:02;98850.81;;;6.82;84.91
7760;BME280;3924;48.830;9.262;2023-12-20T12:45:30;98848.78;;;7.05;84.25
7760;BME280;3924;48.830;9.262;2023-12-20T12:47:57;98856.63;;;7.11;83.64
7760;BME280;3924;48.830;9.262;2023-12-20T12:50:24;98846.56;;;6.97;83.54
7760;BME280;3924;48.830;9.262;2023-12-20T12:52:51;98849.19;;;6.81;84.25
7760;BME280;3924;48.830;9.262;2023-12-20T12:55:17;98856.63;;;6.64;84.31
7760;BME280;3924;48.830;9.262;2023-12-20T12:57:44;98853.56;;;6.50;84.52
7760;BME280;3924;48.830;9.262;2023-12-20T13:00:11;98854.31;;;6.41;84.07
7760;BME280;3924;48.830;9.262;2023-12-20T13:02:38;98852.09;;;6.33;84.36
7760;BME280;3924;48.830;9.262;2023-12-20T13:05:08;98856.34;;;6.28;84.29
7760;BME280;3924;48.830;9.262;2023-12-20T13:07:35;98856.88;;;6.25;84.48
7760;BME280;3924;48.830;9.262;2023-12-20T13:10:02;98852.53;;;6.24;84.05
7760;BME280;3924;48.830;9.262;2023-12-20T13:12:30;98851.44;;;6.20;84.45
7760;BME280;3924;48.830;9.262;2023-12-20T13:14:56;98854.13;;;6.20;84.05
7760;BME280;3924;48.830;9.262;2023-12-20T13:17:23;98855.03;;;6.31;84.24
7760;BME280;3924;48.830;9.262;2023-12-20T13:19:49;98847.81;;;6.37;83.67
7760;BME280;3924;48.830;9.262;2023-12-20T13:22:16;98855.94;;;6.42;83.38
7760;BME280;3924;48.830;9.262;2023-12-20T13:24:42;98849.19;;;6.44;83.70
7760;BME280;3924;48.830;9.262;2023-12-20T13:27:10;98857.31;;;6.49;83.60
7760;BME280;3924;48.830;9.262;2023-12-20T13:29:37;98846.81;;;6.48;83.40
7760;BME280;3924;48.830;9.262;2023-12-20T13:32:06;98850.06;;;6.50;82.54
7760;BME280;3924;48.830;9.262;2023-12-20T13:34:33;98851.91;;;6.44;82.84